createdAt,value
2022-09-03T00:01:39.015Z,54.18
2022-09-03T00:04:53.060Z,54.21
2022-09-03T00:08:04.264Z,54.50
2022-09-03T00:11:14.926Z,54.11
2022-09-03T00:14:24.183Z,54.17
2022-09-03T00:17:32.182Z,55.00
2022-09-03T00:20:40.270Z,54.42
2022-09-03T00:23:45.409Z,54.87
2022-09-03T00:26:54.699Z,55.54
2022-09-03T00:30:03.479Z,55.55
2022-09-03T00:33:14.674Z,55.37
2022-09-03T00:36:21.184Z,55.68
2022-09-03T00:39:26.693Z,55.56
2022-09-03T00:42:40.907Z,55.83
2022-09-03T00:45:52.754Z,56.67
2022-09-03T00:49:22.965Z,56.85
2022-09-03T00:52:39.492Z,56.58
2022-09-03T00:55:58.824Z,56.79
2022-09-03T00:59:15.415Z,57.29
2022-09-03T01:02:28.761Z,56.84
2022-09-03T01:05:43.399Z,56.20
2022-09-03T01:09:10.395Z,56.51
2022-09-03T01:12:25.070Z,56.86
2022-09-03T01:15:37.074Z,56.83
2022-09-03T01:18:49.587Z,56.11
2022-09-03T01:22:20.917Z,55.88
2022-09-03T01:25:38.761Z,55.61
2022-09-03T01:28:56.553Z,55.61
2022-09-03T01:32:07.473Z,55.98
2022-09-03T01:35:22.624Z,55.46
2022-09-03T01:38:34.123Z,55.63
2022-09-03T01:42:09.414Z,55.17
2022-09-03T01:45:23.413Z,55.72
2022-09-03T01:48:40.912Z,56.02
2022-09-03T01:51:45.241Z,55.96
2022-09-03T01:55:07.258Z,55.60
2022-09-03T01:58:15.711Z,56.09
2022-09-03T02:01:26.194Z,56.05
2022-09-03T02:04:29.301Z,56.59
2022-09-03T02:07:34.856Z,56.33
2022-09-03T02:10:42.435Z,56.67
2022-09-03T02:13:49.463Z,56.36
2022-09-03T02:16:54.486Z,56.58
2022-09-03T02:19:57.523Z,57.02
2022-09-03T02:23:00.797Z,56.20
2022-09-03T02:26:04.818Z,56.02
2022-09-03T02:29:07.758Z,56.81
2022-09-03T02:32:11.841Z,57.10
2022-09-03T02:35:14.696Z,56.68
2022-09-03T02:38:19.218Z,56.91
2022-09-03T02:41:22.911Z,56.30
2022-09-03T02:44:31.671Z,56.59
2022-09-03T02:47:39.409Z,56.44
2022-09-03T02:50:42.826Z,57.31
2022-09-03T02:53:45.703Z,57.33
2022-09-03T02:56:49.766Z,57.30
2022-09-03T02:59:52.660Z,56.71
2022-09-03T03:02:57.531Z,57.00
2022-09-03T03:06:03.511Z,56.77
2022-09-03T03:09:07.052Z,56.59
2022-09-03T03:12:10.542Z,57.19
2022-09-03T03:15:13.215Z,56.83
2022-09-03T03:18:17.736Z,56.75
2022-09-03T03:21:20.862Z,56.19
2022-09-03T03:24:23.700Z,56.52
2022-09-03T03:27:27.838Z,56.77
2022-09-03T03:30:31.004Z,56.50
2022-09-03T03:33:35.382Z,56.03
2022-09-03T03:36:38.278Z,56.15
2022-09-03T03:39:40.978Z,56.57
2022-09-03T03:42:44.336Z,56.19
2022-09-03T03:45:57.707Z,56.02
2022-09-03T03:49:02.833Z,55.65
2022-09-03T03:52:05.664Z,56.02
2022-09-03T03:55:08.874Z,54.73
2022-09-03T03:58:11.652Z,54.86
2022-09-03T04:01:16.979Z,55.31
2022-09-03T04:04:21.175Z,55.71
2022-09-03T04:07:23.837Z,55.16
2022-09-03T04:10:26.555Z,55.51
2022-09-03T04:13:30.828Z,55.73
2022-09-03T04:16:33.994Z,54.75
2022-09-03T04:19:38.422Z,55.25
2022-09-03T04:22:41.283Z,54.93
2022-09-03T04:25:45.000Z,55.62
2022-09-03T04:28:48.582Z,55.35
2022-09-03T04:32:08.606Z,55.91
2022-09-03T04:35:12.770Z,55.64
2022-09-03T04:38:15.413Z,55.71
2022-09-03T04:41:19.955Z,55.03
2022-09-03T04:44:22.575Z,55.67
2022-09-03T04:47:25.484Z,55.15
2022-09-03T04:50:30.936Z,55.72
2022-09-03T04:53:35.117Z,56.12
2022-09-03T04:56:39.779Z,55.87
2022-09-03T04:59:42.898Z,56.16
2022-09-03T05:02:47.032Z,55.29
2022-09-03T05:05:56.688Z,56.75
2022-09-03T05:09:00.198Z,56.54
2022-09-03T05:12:02.858Z,57.18
2022-09-03T05:15:06.722Z,57.35
2022-09-03T05:18:09.389Z,55.50
2022-09-03T05:21:15.502Z,57.21
2022-09-03T05:24:18.641Z,57.26
2022-09-03T05:27:21.364Z,57.68
2022-09-03T05:30:24.406Z,56.83
2022-09-03T05:33:28.027Z,57.42
2022-09-03T05:36:34.658Z,57.57
2022-09-03T05:39:37.713Z,57.27
2022-09-03T05:42:40.420Z,57.51
2022-09-03T05:45:43.313Z,57.46
2022-09-03T05:48:46.026Z,57.63
2022-09-03T05:51:50.142Z,58.09
2022-09-03T05:54:52.788Z,57.68
2022-09-03T05:57:55.713Z,57.74
2022-09-03T06:00:58.611Z,56.68
2022-09-03T06:04:03.393Z,56.03
2022-09-03T06:07:07.521Z,56.12
2022-09-03T06:10:12.838Z,56.17
2022-09-03T06:13:15.880Z,55.87
2022-09-03T06:16:18.595Z,55.54
2022-09-03T06:19:31.884Z,54.54
2022-09-03T06:22:35.868Z,53.40
2022-09-03T06:25:38.652Z,53.97
2022-09-03T06:28:43.424Z,54.09
2022-09-03T06:31:46.326Z,54.00
2022-09-03T06:34:48.991Z,53.94
2022-09-03T06:37:53.250Z,54.23
2022-09-03T06:40:56.966Z,54.24
2022-09-03T06:44:02.412Z,51.41
2022-09-03T06:47:05.290Z,51.25
2022-09-03T06:50:08.632Z,50.01
2022-09-03T06:53:12.625Z,50.02
2022-09-03T06:56:17.407Z,48.95
2022-09-03T06:59:20.033Z,49.43
2022-09-03T07:02:23.374Z,49.91
2022-09-03T07:05:28.647Z,48.94
2022-09-03T07:08:33.502Z,47.73
2022-09-03T07:11:37.505Z,46.29
2022-09-03T07:14:40.311Z,46.38
2022-09-03T07:17:42.940Z,45.42
2022-09-03T07:20:45.685Z,43.68
2022-09-03T07:23:51.715Z,43.79
2022-09-03T07:26:55.048Z,43.74
2022-09-03T07:29:57.686Z,44.60
2022-09-03T07:33:04.201Z,43.96
2022-09-03T07:36:09.343Z,42.99
2022-09-03T07:42:16.600Z,43.17
2022-09-03T07:45:19.633Z,41.84
2022-09-03T07:48:22.433Z,42.38
2022-09-03T07:51:27.893Z,41.69
2022-09-03T07:54:31.883Z,42.18
2022-09-03T07:57:34.891Z,42.50
2022-09-03T08:00:37.553Z,43.10
2022-09-03T08:03:44.379Z,43.84
2022-09-03T08:06:48.223Z,44.14
2022-09-03T08:09:52.362Z,44.21
2022-09-03T08:12:55.173Z,45.16
2022-09-03T08:16:00.255Z,45.68
2022-09-03T08:19:03.190Z,46.00
2022-09-03T08:22:06.107Z,44.91
2022-09-03T08:25:13.737Z,45.09
2022-09-03T08:28:16.677Z,44.30
2022-09-03T08:31:21.399Z,42.31
2022-09-03T08:34:24.395Z,39.20
2022-09-03T08:37:29.336Z,39.45
2022-09-03T08:40:35.719Z,37.81
2022-09-03T08:43:55.259Z,37.74
2022-09-03T08:47:02.175Z,40.21
2022-09-03T08:50:13.147Z,38.46
2022-09-03T08:53:22.433Z,37.71
2022-09-03T08:56:29.902Z,36.30
2022-09-03T08:59:33.441Z,36.50
2022-09-03T09:02:47.275Z,36.42
2022-09-03T09:05:56.740Z,37.26
2022-09-03T09:09:08.940Z,36.47
2022-09-03T09:12:22.831Z,36.20
2022-09-03T09:15:36.656Z,34.70
2022-09-03T09:18:56.435Z,34.58
2022-09-03T09:22:03.989Z,33.93
2022-09-03T09:25:14.297Z,33.85
2022-09-03T09:28:21.317Z,34.56
2022-09-03T09:31:24.197Z,32.53
2022-09-03T09:34:27.830Z,31.64
2022-09-03T09:37:30.469Z,31.09
2022-09-03T09:40:35.651Z,31.34
2022-09-03T09:43:39.989Z,31.17
2022-09-03T09:46:43.070Z,30.04
2022-09-03T09:49:54.411Z,30.83
2022-09-03T09:53:05.473Z,30.34
2022-09-03T09:56:09.737Z,31.69
2022-09-03T09:59:16.408Z,29.56
2022-09-03T10:02:27.506Z,30.45
2022-09-03T10:05:33.730Z,28.15
2022-09-03T10:08:36.787Z,28.81
2022-09-03T10:11:42.730Z,29.26
2022-09-03T10:14:52.456Z,28.46
2022-09-03T10:18:01.642Z,27.27
2022-09-03T10:21:11.372Z,27.02
2022-09-03T10:24:32.953Z,27.29
2022-09-03T10:27:37.375Z,27.67
2022-09-03T10:31:01.311Z,26.83
2022-09-03T10:34:09.927Z,26.57
2022-09-03T10:37:22.928Z,26.76
2022-09-03T10:40:33.095Z,26.33
2022-09-03T10:44:01.083Z,25.61
2022-09-03T10:47:21.703Z,25.61
2022-09-03T10:50:29.101Z,25.26
2022-09-03T10:53:46.615Z,24.70
2022-09-03T10:57:02.995Z,26.19
2022-09-03T11:00:09.804Z,27.38
2022-09-03T11:03:31.937Z,27.75
2022-09-03T11:06:44.830Z,26.80
2022-09-03T11:09:55.180Z,27.31
2022-09-03T11:13:07.803Z,28.00
2022-09-03T11:16:16.038Z,27.51
2022-09-03T11:19:27.879Z,28.29
2022-09-03T11:22:32.292Z,29.67
2022-09-03T11:25:37.957Z,29.83
2022-09-03T11:28:49.377Z,30.06
2022-09-03T11:31:59.766Z,29.55
2022-09-03T11:35:15.277Z,29.06
2022-09-03T11:38:27.480Z,29.73
2022-09-03T11:41:35.716Z,29.96
2022-09-03T11:44:47.940Z,29.59
2022-09-03T11:47:55.332Z,29.33
2022-09-03T11:50:59.375Z,29.80
2022-09-03T11:54:04.959Z,28.68
2022-09-03T11:57:13.220Z,28.57
2022-09-03T12:00:22.595Z,27.87
2022-09-03T12:03:29.631Z,28.99
2022-09-03T12:06:49.749Z,28.71
2022-09-03T12:10:04.325Z,28.10
2022-09-03T12:13:30.775Z,27.46
2022-09-03T12:16:50.866Z,27.87
2022-09-03T12:19:55.927Z,28.96
2022-09-03T12:23:00.145Z,28.85
2022-09-03T12:26:06.349Z,28.20
2022-09-03T12:29:23.481Z,28.42
2022-09-03T12:32:37.103Z,29.44
2022-09-03T12:39:12.324Z,30.48
2022-09-03T12:42:21.852Z,30.53
2022-09-03T12:46:09.898Z,30.22
2022-09-03T12:52:27.825Z,31.19
2022-09-03T12:55:37.493Z,30.44
2022-09-03T12:58:49.871Z,30.54
2022-09-03T13:01:56.156Z,28.93
2022-09-03T13:04:59.152Z,29.70
2022-09-03T13:08:06.793Z,28.61
2022-09-03T13:11:11.218Z,28.45
2022-09-03T13:14:18.647Z,28.52
2022-09-03T13:17:56.396Z,27.84
2022-09-03T13:21:14.579Z,27.94
2022-09-03T13:24:58.474Z,27.02
2022-09-03T13:28:16.810Z,27.85
2022-09-03T13:31:31.721Z,27.90
2022-09-03T13:34:38.614Z,28.10
2022-09-03T13:37:46.282Z,27.71
2022-09-03T13:40:55.641Z,28.34
2022-09-03T13:44:05.726Z,28.24
2022-09-03T13:47:19.642Z,28.84
2022-09-03T13:50:27.251Z,28.71
2022-09-03T13:53:41.256Z,29.75
2022-09-03T13:56:52.775Z,28.90
2022-09-03T14:00:06.754Z,28.55
2022-09-03T14:03:15.542Z,29.77
2022-09-03T14:06:33.357Z,29.76
2022-09-03T14:09:43.048Z,29.23
2022-09-03T14:12:52.003Z,28.86
2022-09-03T14:16:06.069Z,29.09
2022-09-03T14:19:17.066Z,27.64
2022-09-03T14:22:24.098Z,27.98
2022-09-03T14:25:28.346Z,28.14
2022-09-03T14:28:35.442Z,28.54
2022-09-03T14:31:58.900Z,28.47
2022-09-03T14:35:16.059Z,29.12
2022-09-03T14:38:52.736Z,29.25
2022-09-03T14:42:11.993Z,29.22
2022-09-03T14:45:25.646Z,29.33
2022-09-03T14:48:58.805Z,29.02
2022-09-03T14:52:20.752Z,28.75
2022-09-03T14:55:53.169Z,28.99
2022-09-03T14:59:19.083Z,29.00
2022-09-03T15:02:54.287Z,29.42
2022-09-03T15:06:11.707Z,29.31
2022-09-03T15:09:28.703Z,29.53
2022-09-03T15:12:36.901Z,29.29
2022-09-03T15:15:55.643Z,29.01
2022-09-03T15:19:11.635Z,28.88
2022-09-03T15:22:29.613Z,28.38
2022-09-03T15:25:48.794Z,29.42
2022-09-03T15:29:04.897Z,29.09
2022-09-03T15:32:16.976Z,29.67
2022-09-03T15:35:38.120Z,29.21
2022-09-03T15:38:49.056Z,30.34
2022-09-03T15:41:55.994Z,30.95
2022-09-03T15:45:05.497Z,31.03
2022-09-03T15:48:21.361Z,30.63
2022-09-03T15:51:27.950Z,30.97
2022-09-03T15:54:44.002Z,30.99
2022-09-03T15:57:55.571Z,31.18
2022-09-03T16:01:03.329Z,31.06
2022-09-03T16:04:20.761Z,30.81
2022-09-03T16:07:27.626Z,30.85
2022-09-03T16:10:58.773Z,30.94
2022-09-03T16:14:07.743Z,30.95
2022-09-03T16:17:22.181Z,31.24
2022-09-03T16:20:29.717Z,31.20
2022-09-03T16:23:39.128Z,30.92
2022-09-03T16:26:52.180Z,31.10
2022-09-03T16:30:01.854Z,31.51
2022-09-03T16:33:21.545Z,31.60
2022-09-03T16:36:35.993Z,31.85
2022-09-03T16:39:51.938Z,31.85
2022-09-03T16:43:18.121Z,32.29
2022-09-03T16:46:37.417Z,31.37
2022-09-03T16:49:51.624Z,32.03
2022-09-03T16:53:06.172Z,32.21
2022-09-03T16:56:25.915Z,32.27
2022-09-03T16:59:48.892Z,32.23
2022-09-03T17:03:25.810Z,32.50
2022-09-03T17:06:41.661Z,32.77
2022-09-03T17:09:59.837Z,32.84
2022-09-03T17:13:19.759Z,32.84
2022-09-03T17:16:36.989Z,33.33
2022-09-03T17:19:49.697Z,33.65
2022-09-03T17:23:04.776Z,34.45
2022-09-03T17:26:13.235Z,33.82
2022-09-03T17:29:31.825Z,34.00
2022-09-03T17:33:04.131Z,34.24
2022-09-03T17:36:14.306Z,34.80
2022-09-03T17:39:46.473Z,35.17
2022-09-03T17:42:57.283Z,35.35
2022-09-03T17:46:13.438Z,35.26
2022-09-03T17:49:24.230Z,35.46
2022-09-03T17:52:32.271Z,35.83
2022-09-03T17:55:38.468Z,35.55
2022-09-03T17:58:46.023Z,35.84
2022-09-03T18:01:54.135Z,36.32
2022-09-03T18:05:03.016Z,37.03
2022-09-03T18:08:10.117Z,36.52
2022-09-03T18:11:19.653Z,36.53
2022-09-03T18:14:27.432Z,36.40
2022-09-03T18:17:37.078Z,36.72
2022-09-03T18:21:22.907Z,36.93
2022-09-03T18:24:51.056Z,36.74
2022-09-03T18:28:16.715Z,36.93
2022-09-03T18:31:37.251Z,36.85
2022-09-03T18:34:57.937Z,37.43
2022-09-03T18:38:21.233Z,37.55
2022-09-03T18:41:59.709Z,37.70
2022-09-03T18:45:41.978Z,37.83
2022-09-03T18:49:15.957Z,37.77
2022-09-03T18:52:45.557Z,38.04
2022-09-03T18:56:20.365Z,37.91
2022-09-03T19:00:02.205Z,37.98
2022-09-03T19:03:53.895Z,38.06
2022-09-03T19:07:22.360Z,38.38
2022-09-03T19:10:47.009Z,38.37
2022-09-03T19:14:10.147Z,38.35
2022-09-03T19:17:38.863Z,38.60
2022-09-03T19:21:04.000Z,38.35
2022-09-03T19:24:24.490Z,38.88
2022-09-03T19:27:59.337Z,39.13
2022-09-03T19:31:43.967Z,39.05
2022-09-03T19:35:20.469Z,39.38
2022-09-03T19:38:48.324Z,39.71
2022-09-03T19:42:15.109Z,39.69
2022-09-03T19:45:42.710Z,39.64
2022-09-03T19:49:18.299Z,40.01
2022-09-03T19:52:46.346Z,39.94
2022-09-03T19:56:11.826Z,39.88
2022-09-03T19:59:36.928Z,40.34
2022-09-03T20:02:58.928Z,40.16
2022-09-03T20:06:23.316Z,40.47
2022-09-03T20:09:51.338Z,40.86
2022-09-03T20:13:04.517Z,40.93
2022-09-03T20:16:14.263Z,41.51
2022-09-03T20:19:26.424Z,41.34
2022-09-03T20:22:34.468Z,42.06
2022-09-03T20:25:58.804Z,42.04
2022-09-03T20:29:23.749Z,42.04
2022-09-03T20:32:48.890Z,41.86
2022-09-03T20:36:08.315Z,41.79
2022-09-03T20:39:25.418Z,41.71
2022-09-03T20:42:53.769Z,41.23
2022-09-03T20:46:09.290Z,41.35
2022-09-03T20:49:20.281Z,41.74
2022-09-03T20:52:32.125Z,41.26
2022-09-03T20:55:41.778Z,41.11
2022-09-03T20:58:52.245Z,41.54
2022-09-03T21:02:01.317Z,41.15
2022-09-03T21:05:15.249Z,41.26
2022-09-03T21:08:32.668Z,41.40
2022-09-03T21:11:43.203Z,40.93
2022-09-03T21:14:52.409Z,41.28
2022-09-03T21:18:05.625Z,40.95
2022-09-03T21:21:17.481Z,41.13
2022-09-03T21:24:23.634Z,40.92
2022-09-03T21:27:42.499Z,40.74
2022-09-03T21:30:49.768Z,40.64
2022-09-03T21:33:59.330Z,41.24
2022-09-03T21:37:05.546Z,41.34
2022-09-03T21:40:13.412Z,41.67
2022-09-03T21:43:30.198Z,41.30
2022-09-03T21:46:38.887Z,41.91
2022-09-03T21:49:57.001Z,41.62
2022-09-03T21:53:08.332Z,41.44
2022-09-03T21:56:22.707Z,41.70
2022-09-03T21:59:55.172Z,41.59
2022-09-03T22:02:59.375Z,41.34
2022-09-03T22:06:07.605Z,41.60
2022-09-03T22:09:14.682Z,41.82
2022-09-03T22:12:23.376Z,41.90
2022-09-03T22:15:29.956Z,41.45
2022-09-03T22:18:37.837Z,41.05
2022-09-03T22:21:50.341Z,41.61
2022-09-03T22:25:04.684Z,42.06
2022-09-03T22:28:14.327Z,42.06
2022-09-03T22:31:25.658Z,41.57
2022-09-03T22:34:44.413Z,41.88
2022-09-03T22:38:02.294Z,41.86
2022-09-03T22:41:16.032Z,41.68
2022-09-03T22:44:32.321Z,42.00
2022-09-03T22:47:49.371Z,42.20
2022-09-03T22:50:57.747Z,42.29
2022-09-03T22:54:11.861Z,42.48
2022-09-03T22:57:16.982Z,42.27
2022-09-03T23:00:21.088Z,42.12
2022-09-03T23:03:33.976Z,42.05
2022-09-03T23:06:40.961Z,41.77
2022-09-03T23:09:46.566Z,41.83
2022-09-03T23:12:53.278Z,41.90
2022-09-03T23:16:04.089Z,41.93
2022-09-03T23:22:24.565Z,42.42
2022-09-03T23:25:33.898Z,42.32
2022-09-03T23:28:39.512Z,42.55
2022-09-03T23:31:45.034Z,42.59
2022-09-03T23:34:49.222Z,42.56
2022-09-03T23:38:06.550Z,42.57
2022-09-03T23:41:17.463Z,42.86
2022-09-03T23:44:38.188Z,42.93
2022-09-03T23:47:45.619Z,42.85
2022-09-03T23:51:01.560Z,42.64
2022-09-03T23:54:14.157Z,42.44
2022-09-03T23:57:25.335Z,42.76
